Share

Morgan City, LA

North Berwick Station (KLABERWI2) Elev 10 ft | 29.72 °N, 91.24 °W | Change Station

Current weather conditions updated 12 seconds ago

Overcast
Overcast
63.7 °F
Feels Like 63.7 °F
N
5.0
Wind Variable Wind from NE
Gusts 5.0 mph
Sunrise 6:36 AM
Sunset 7:33 PM
Moon Waning Gibbous

Today is forecast to be Warmer than yesterday. Afternoon showers.

Pressure 30.15 in
Visibility 10.0 miles
Clouds Overcast 4400 ft
Dew Point 58 °F
Humidity 82%
Rainfall 0.00 in
Snow Depth Not available.
UV 0.7 out of 16
Pollen 7.50 out of 12
Air Quality Not available.
Flu Activity Local Activity
SPECI K7R3 171244Z 06005KT 10SM OVC044 16/11 A3015

More Conditions Fewer Conditions

Pressure 30.15 in
Visibility 10.0 miles
Clouds Overcast 4400 ft
Dew Point 58 °F
Humidity 82%
Rainfall 0.00 in
Snow Depth Not available.
UV 0.7 out of 16
Pollen 7.50 out of 12
Air Quality Not available.
Flu Activity Local Activity
SPECI K7R3 171244Z 06005KT 10SM OVC044 16/11 A3015

More Conditions Fewer Conditions

10-Day Forecast

Almanac

Astronomy

Apr. 17, 2014 Rise Set
Actual Time 6:36 AM CDT 7:33 PM CDT
Civil Twilight 6:11 AM CDT 7:57 PM CDT
Nautical Twilight 5:42 AM CDT 8:26 PM CDT
Astronomical Twilight 5:12 AM CDT 8:56 PM CDT
Moon 10:09 PM CDT 8:15 AM CDT
Length of Visible Light 13h 46m
Length of Day
12h 56m
Tomorrow will be 1m 41s longer.
Waning Gibbous, 94% of the Moon is Illuminated
Today
Waning Gibbous
Apr 22
Last Quarter
Apr 29
New
May 6
First Quarter
May 14
Full

Today's Extremes

State Highs State Lows

Community

  • New Day
    New Day
  • Lake Michigan Sunrise
    Lake Michigan Sunrise
  • sunset from izmir, narlıdere
    sunset from izmir, narlıdere
  • oregon cherry
    oregon cherry
  • Sunset over the Bay
    Sunset over the Bay

WunderPhotos

Upload Photos

1,702,030 photos uploaded!

Nearby

Snow Depth

Station Depth Elevation
No new snow has been reported.

Coastal Water Temperatures

Place Temperature
Amerada Pass, LA 60.1 °F
Fresh Water Canal Locks, LA 62.1 °F

Earthquake Activity

City Distance Mag. Time & Date
No recent earthquake activity has been reported nearby.
Minimum magnitude displayed is 2.5.

Nearby Weather Stations

Station Location Temp. Dew Point Humidity Wind Precip. Elev Updated Type
North Berwick Station, Berwick, LA 63.7 °F 58 °F 82% NE  at  5.0 mph 0.00 in / hr 10 ft 10:31 AM CDT Rapid Fire
USDA Sugarcane Research Unit, Schriever, LA 63.4 °F 55 °F 75% ENE  at  9.0 mph 0.00 in / hr 13 ft 10:31 AM CDT Rapid Fire
Jerry's House (Schriever), Thibodaux, LA 64.2 °F 58 °F 79% NNE  at  3.0 mph 0.00 in / hr 26 ft 10:31 AM CDT Normal
Abbey Heights, Thibodaux, LA 65.3 °F 58 °F 77% ENE  at  0.0 mph 0.00 in / hr 20 ft 10:29 AM CDT Normal

Show More Stations Show Fewer Stations

What do you think?

We're not finished. Please let us know what you like, what you don't like, and what you are still missing.